Time;durP1;ratioP1;P1;durP2;ratioP2;P2;SDS_P1;SDS_P2;PMS_P1;PMS_P2;Temp;Humidity;BMP_temperature;BMP_pressure;BME280_temperature;BME280_humidity;BME280_pressure;Samples;Min_cycle;Max_cycle;Signal;HPM_P1;HPM_P2
2021/09/02 00:02:06;;;;;;;8.75;5.82;;;16.70;99.90;;;;;;5048014;28;20245;-81
2021/09/02 00:04:33;;;;;;;7.50;6.22;;;16.70;99.90;;;;;;5047375;28;20210;-82
2021/09/02 00:07:01;;;;;;;8.10;5.95;;;16.70;99.90;;;;;;5047337;28;20194;-83
2021/09/02 00:09:28;;;;;;;6.70;5.50;;;16.70;99.90;;;;;;5047108;28;20209;-82
2021/09/02 00:11:55;;;;;;;8.30;5.68;;;16.60;99.90;;;;;;5047481;28;20216;-82
2021/09/02 00:14:22;;;;;;;6.78;5.68;;;16.60;99.90;;;;;;5047812;28;20209;-83
2021/09/02 00:16:50;;;;;;;7.18;5.60;;;16.60;99.90;;;;;;5048302;28;20202;-82
2021/09/02 00:19:17;;;;;;;6.88;5.90;;;16.60;99.90;;;;;;5048514;28;20209;-81
2021/09/02 00:21:44;;;;;;;7.30;6.05;;;16.60;99.90;;;;;;5066719;28;20492;-81
2021/09/02 00:24:11;;;;;;;8.60;5.68;;;16.60;99.90;;;;;;5067638;28;20204;-82
2021/09/02 00:26:40;;;;;;;6.13;5.50;;;16.60;99.90;;;;;;5066404;28;20209;-82
2021/09/02 00:29:07;;;;;;;7.75;5.97;;;16.60;99.90;;;;;;5067057;28;20205;-82
2021/09/02 00:31:34;;;;;;;6.90;5.95;;;16.60;99.90;;;;;;5066740;28;20209;-80
2021/09/02 00:34:02;;;;;;;9.85;6.55;;;16.60;99.90;;;;;;5065595;28;20212;-78
2021/09/02 00:36:29;;;;;;;8.15;6.57;;;16.60;99.90;;;;;;5067259;28;20202;-80
2021/09/02 00:38:56;;;;;;;8.35;6.55;;;16.60;99.90;;;;;;5065714;28;20447;-79
2021/09/02 00:41:23;;;;;;;8.43;5.78;;;16.60;99.90;;;;;;5067120;28;20198;-79
2021/09/02 00:43:50;;;;;;;7.10;5.50;;;16.60;99.90;;;;;;5066978;28;20232;-79
2021/09/02 00:46:18;;;;;;;7.30;5.82;;;16.50;99.90;;;;;;5066912;28;20205;-81
2021/09/02 00:48:46;;;;;;;10.00;6.60;;;16.50;99.90;;;;;;5047240;28;20205;-80
2021/09/02 00:51:16;;;;;;;8.55;5.78;;;16.60;99.90;;;;;;5047568;28;20206;-80
2021/09/02 00:53:44;;;;;;;9.90;5.97;;;16.50;99.90;;;;;;5047029;28;20508;-80
2021/09/02 00:56:10;;;;;;;10.07;7.00;;;16.50;99.90;;;;;;5047033;28;20194;-79
2021/09/02 00:58:37;;;;;;;7.38;6.10;;;16.50;99.90;;;;;;5046734;28;20206;-79
2021/09/02 01:01:04;;;;;;;6.65;5.78;;;16.50;99.90;;;;;;5047593;28;20206;-79
2021/09/02 01:03:31;;;;;;;9.20;6.70;;;16.50;99.90;;;;;;5046914;28;20529;-80
2021/09/02 01:05:58;;;;;;;9.63;6.57;;;16.50;99.90;;;;;;5046356;28;20209;-79
2021/09/02 01:08:26;;;;;;;10.52;6.75;;;16.50;99.90;;;;;;5029127;28;20194;-84
2021/09/02 01:10:54;;;;;;;9.00;7.30;;;16.50;99.90;;;;;;5054386;28;20212;-80
2021/09/02 01:13:22;;;;;;;9.02;6.60;;;16.50;99.90;;;;;;5066343;28;20201;-84
2021/09/02 01:15:49;;;;;;;10.10;7.18;;;16.50;99.90;;;;;;5066303;28;20399;-80
2021/09/02 01:18:16;;;;;;;10.63;6.95;;;16.50;99.90;;;;;;5066664;28;20209;-80
2021/09/02 01:20:43;;;;;;;11.52;6.80;;;16.50;99.90;;;;;;5066165;28;20201;-80
2021/09/02 01:23:10;;;;;;;8.25;6.43;;;16.40;99.90;;;;;;5067273;28;20233;-79
2021/09/02 01:25:42;;;;;;;8.90;6.70;;;16.40;99.90;;;;;;5067113;28;20678;-81
2021/09/02 01:28:10;;;;;;;7.88;6.47;;;16.40;99.90;;;;;;5066419;28;20276;-80
2021/09/02 01:30:39;;;;;;;10.32;6.55;;;16.40;99.90;;;;;;5069651;28;20192;-81
2021/09/02 01:33:06;;;;;;;9.15;6.88;;;16.40;99.90;;;;;;5080927;28;20197;-81
2021/09/02 01:35:34;;;;;;;9.52;7.38;;;16.40;99.90;;;;;;5069933;28;20597;-79
2021/09/02 01:38:02;;;;;;;11.45;6.93;;;16.40;99.90;;;;;;5068972;28;20608;-80
2021/09/02 01:40:31;;;;;;;9.00;6.75;;;16.40;99.90;;;;;;5068799;28;20190;-79
2021/09/02 01:43:00;;;;;;;9.65;6.72;;;16.40;99.90;;;;;;5032985;28;20625;-81
2021/09/02 01:45:28;;;;;;;9.93;7.38;;;16.40;99.90;;;;;;5058098;28;20207;-81
2021/09/02 01:47:57;;;;;;;7.18;6.18;;;16.40;99.90;;;;;;5071689;28;20501;-80
2021/09/02 01:50:25;;;;;;;12.43;7.30;;;16.40;99.90;;;;;;5054374;28;20482;-81
2021/09/02 01:52:54;;;;;;;9.82;6.72;;;16.40;99.90;;;;;;5049582;28;20198;-80
2021/09/02 01:55:22;;;;;;;8.77;6.63;;;16.40;99.90;;;;;;5047520;28;20202;-79
2021/09/02 01:57:50;;;;;;;11.32;7.95;;;16.40;99.90;;;;;;5046216;28;20610;-81
2021/09/02 02:00:20;;;;;;;12.15;7.57;;;16.40;99.90;;;;;;5045874;28;20197;-80
2021/09/02 02:02:47;;;;;;;14.35;8.63;;;16.40;99.90;;;;;;5045984;28;20653;-80
2021/09/02 02:05:14;;;;;;;14.23;8.32;;;16.40;99.90;;;;;;5046376;28;20194;-81
2021/09/02 02:07:42;;;;;;;13.32;9.13;;;16.40;99.90;;;;;;5045962;28;20202;-79
2021/09/02 02:10:11;;;;;;;19.00;9.70;;;16.40;99.90;;;;;;5057889;28;20205;-80
2021/09/02 02:12:38;;;;;;;19.20;9.70;;;16.40;99.90;;;;;;5066322;28;20585;-81
2021/09/02 02:15:06;;;;;;;20.67;9.30;;;16.30;99.90;;;;;;5060386;28;20658;-80
2021/09/02 02:17:35;;;;;;;18.85;9.73;;;16.30;99.90;;;;;;5045347;28;20206;-79
2021/09/02 02:20:02;;;;;;;17.50;9.30;;;16.40;99.90;;;;;;5046077;28;20194;-79
2021/09/02 02:22:28;;;;;;;16.52;9.00;;;16.40;99.90;;;;;;5054539;28;20209;-80
2021/09/02 02:24:55;;;;;;;13.57;9.10;;;16.30;99.90;;;;;;5065670;28;20208;-80
2021/09/02 02:27:22;;;;;;;11.90;7.68;;;16.30;99.90;;;;;;5065516;28;20204;-80
2021/09/02 02:29:49;;;;;;;18.05;9.32;;;16.30;99.90;;;;;;5050424;28;20210;-80
2021/09/02 02:32:16;;;;;;;19.35;9.57;;;16.30;99.90;;;;;;5045379;28;20229;-80
2021/09/02 02:34:44;;;;;;;18.90;9.65;;;16.30;99.90;;;;;;5045655;28;20224;-80
2021/09/02 02:37:11;;;;;;;14.23;8.80;;;16.30;99.90;;;;;;5055045;28;20244;-80
2021/09/02 02:39:38;;;;;;;13.68;8.65;;;16.30;99.90;;;;;;5065917;28;20201;-81
2021/09/02 02:42:06;;;;;;;14.15;8.52;;;16.30;99.90;;;;;;5065468;28;20204;-80
2021/09/02 02:44:33;;;;;;;13.25;8.55;;;16.30;99.90;;;;;;5065699;28;20595;-82
2021/09/02 02:47:00;;;;;;;14.40;8.68;;;16.30;99.90;;;;;;5065507;28;20628;-80
2021/09/02 02:49:27;;;;;;;12.73;7.97;;;16.30;99.90;;;;;;5066831;28;20200;-80
2021/09/02 02:51:55;;;;;;;11.02;7.68;;;16.30;99.90;;;;;;5054650;28;20197;-80
2021/09/02 02:54:22;;;;;;;10.80;7.13;;;16.30;99.90;;;;;;5046291;28;20209;-81
2021/09/02 02:56:49;;;;;;;10.73;7.90;;;16.30;99.90;;;;;;5053574;28;20216;-81
2021/09/02 02:59:16;;;;;;;11.13;8.32;;;16.30;99.90;;;;;;5061658;28;20194;-83
2021/09/02 03:01:43;;;;;;;11.77;8.05;;;16.30;99.90;;;;;;5048792;28;20209;-81
2021/09/02 03:04:10;;;;;;;11.43;7.57;;;16.30;99.90;;;;;;5049552;28;20591;-79
2021/09/02 03:06:36;;;;;;;10.90;7.53;;;16.30;99.90;;;;;;5060021;28;20201;-79
2021/09/02 03:09:05;;;;;;;10.15;6.97;;;16.30;99.90;;;;;;5069066;28;20535;-79
2021/09/02 03:11:32;;;;;;;10.98;7.10;;;16.30;99.90;;;;;;5066256;28;20205;-81
2021/09/02 03:13:59;;;;;;;9.55;7.00;;;16.30;99.90;;;;;;5049012;28;20868;-80
2021/09/02 03:16:26;;;;;;;9.65;6.68;;;16.30;99.90;;;;;;5049613;28;20256;-80
2021/09/02 03:18:53;;;;;;;8.20;6.70;;;16.20;99.90;;;;;;5049793;28;20209;-80
2021/09/02 03:21:20;;;;;;;12.95;7.65;;;16.20;99.90;;;;;;5056759;28;20213;-79
2021/09/02 03:23:47;;;;;;;10.15;7.63;;;16.20;99.90;;;;;;5069043;28;20819;-82
2021/09/02 03:26:15;;;;;;;12.93;7.40;;;16.30;99.90;;;;;;5068636;28;20201;-82
2021/09/02 03:28:42;;;;;;;9.20;7.20;;;16.20;99.90;;;;;;5069127;28;20201;-82
2021/09/02 03:31:09;;;;;;;8.65;6.32;;;16.20;99.90;;;;;;5066169;28;20572;-79
2021/09/02 03:33:36;;;;;;;8.15;6.13;;;16.20;99.90;;;;;;5047670;28;20806;-80
2021/09/02 03:36:03;;;;;;;10.95;7.38;;;16.20;99.90;;;;;;5048103;28;20217;-80
2021/09/02 03:38:30;;;;;;;10.25;6.63;;;16.20;99.90;;;;;;5048366;28;20229;-82
2021/09/02 03:40:56;;;;;;;8.40;6.75;;;16.20;99.90;;;;;;5047839;28;20206;-79
2021/09/02 03:43:25;;;;;;;11.30;7.28;;;16.20;99.90;;;;;;5067161;28;20225;-80
2021/09/02 03:45:51;;;;;;;10.35;7.05;;;16.20;99.90;;;;;;5059260;28;20296;-82
2021/09/02 03:48:18;;;;;;;13.95;8.15;;;16.20;99.90;;;;;;5048518;28;20205;-83
2021/09/02 03:50:45;;;;;;;11.20;7.97;;;16.20;99.90;;;;;;5050526;28;20201;-80
2021/09/02 03:53:12;;;;;;;10.02;7.00;;;16.20;99.90;;;;;;5068871;28;20213;-79
2021/09/02 03:55:39;;;;;;;12.20;7.25;;;16.20;99.90;;;;;;5048515;28;20217;-81
2021/09/02 03:58:06;;;;;;;18.77;10.27;;;16.20;99.90;;;;;;5048609;28;20194;-81
2021/09/02 04:00:35;;;;;;;10.73;8.32;;;16.20;99.90;;;;;;5048819;28;20209;-81
2021/09/02 04:03:02;;;;;;;15.75;9.95;;;16.20;99.90;;;;;;5047478;28;20260;-81
2021/09/02 04:05:29;;;;;;;19.60;9.82;;;16.20;99.90;;;;;;5049069;28;20205;-81
2021/09/02 04:07:56;;;;;;;18.90;9.85;;;16.20;99.90;;;;;;5047363;28;20213;-80
2021/09/02 04:10:23;;;;;;;17.00;10.30;;;16.20;99.90;;;;;;5048798;28;20606;-80
2021/09/02 04:12:49;;;;;;;17.80;10.80;;;16.20;99.90;;;;;;5057463;28;20198;-81
2021/09/02 04:15:16;;;;;;;17.02;10.02;;;16.20;99.90;;;;;;5068369;28;20205;-81
2021/09/02 04:17:45;;;;;;;17.33;9.82;;;16.20;99.90;;;;;;5058795;28;20198;-80
2021/09/02 04:20:12;;;;;;;18.45;11.20;;;16.20;99.90;;;;;;5048484;28;20201;-80
2021/09/02 04:22:40;;;;;;;18.92;10.90;;;16.20;99.90;;;;;;5066699;28;20731;-80
2021/09/02 04:25:07;;;;;;;14.85;10.10;;;16.20;99.90;;;;;;5068087;28;20228;-80
2021/09/02 04:27:34;;;;;;;16.15;11.15;;;16.20;99.90;;;;;;5068328;28;20513;-80
2021/09/02 04:30:01;;;;;;;18.83;12.32;;;16.20;99.90;;;;;;5066091;28;20212;-80
2021/09/02 04:32:28;;;;;;;17.73;11.50;;;16.20;99.90;;;;;;5067460;28;20898;-80
2021/09/02 04:34:56;;;;;;;18.25;11.48;;;16.20;99.90;;;;;;5067079;28;20212;-79
2021/09/02 04:37:23;;;;;;;17.05;10.95;;;16.20;99.90;;;;;;5066938;28;20252;-79
2021/09/02 04:39:50;;;;;;;15.68;11.02;;;16.20;99.90;;;;;;5066461;28;20213;-80
2021/09/02 04:42:17;;;;;;;21.85;12.77;;;16.20;99.90;;;;;;5067529;28;20604;-80
2021/09/02 04:44:43;;;;;;;16.48;11.52;;;16.20;99.90;;;;;;5066567;28;20225;-81
2021/09/02 04:47:10;;;;;;;19.25;12.13;;;16.20;99.90;;;;;;5060832;28;20214;-80
2021/09/02 04:49:37;;;;;;;18.00;11.73;;;16.20;99.90;;;;;;5053696;28;20540;-80
2021/09/02 04:52:06;;;;;;;25.58;12.57;;;16.20;99.90;;;;;;5066715;28;20201;-80
2021/09/02 04:54:33;;;;;;;21.02;12.43;;;16.20;99.90;;;;;;5050598;28;20216;-80
2021/09/02 04:57:00;;;;;;;15.05;10.75;;;16.20;99.90;;;;;;5045831;28;20597;-80
2021/09/02 04:59:26;;;;;;;19.30;12.38;;;16.10;99.90;;;;;;5047263;28;20202;-81
2021/09/02 05:01:53;;;;;;;20.50;13.57;;;16.20;99.90;;;;;;5047142;28;20206;-79
2021/09/02 05:04:20;;;;;;;22.45;13.18;;;16.20;99.90;;;;;;5047364;28;20229;-81
2021/09/02 05:06:47;;;;;;;26.42;14.18;;;16.20;99.90;;;;;;5045425;28;20205;-81
2021/09/02 05:09:15;;;;;;;19.90;13.10;;;16.20;99.90;;;;;;5047783;28;20249;-79
2021/09/02 05:11:42;;;;;;;24.00;13.52;;;16.20;99.90;;;;;;5046422;28;20209;-82
2021/09/02 05:14:09;;;;;;;21.48;13.45;;;16.20;99.90;;;;;;5047098;28;20285;-81
2021/09/02 05:16:36;;;;;;;22.80;14.77;;;16.20;99.90;;;;;;5063426;28;20214;-81
2021/09/02 05:19:03;;;;;;;20.77;13.52;;;16.20;99.90;;;;;;5067446;28;20216;-81
2021/09/02 05:21:30;;;;;;;17.88;12.45;;;16.20;99.90;;;;;;5067981;28;20201;-81
2021/09/02 05:23:56;;;;;;;18.23;12.88;;;16.20;99.90;;;;;;5063022;28;20218;-79
2021/09/02 05:26:24;;;;;;;22.38;12.52;;;16.20;99.90;;;;;;5061489;28;20220;-80
2021/09/02 05:28:51;;;;;;;20.80;11.98;;;16.20;99.90;;;;;;5067051;28;20605;-80
2021/09/02 05:31:18;;;;;;;19.17;11.98;;;16.20;99.90;;;;;;5068312;28;20225;-80
2021/09/02 05:33:45;;;;;;;18.50;11.70;;;16.20;99.90;;;;;;5067027;28;20209;-79
2021/09/02 05:36:12;;;;;;;16.27;10.38;;;16.20;99.90;;;;;;5068591;28;20209;-81
2021/09/02 05:38:39;;;;;;;16.90;10.93;;;16.20;99.90;;;;;;5067644;28;20236;-80
2021/09/02 05:41:06;;;;;;;13.38;10.60;;;16.20;99.90;;;;;;5066438;28;20194;-80
2021/09/02 05:43:34;;;;;;;19.58;11.98;;;16.20;99.90;;;;;;5067129;28;20258;-82
2021/09/02 05:46:01;;;;;;;15.43;10.43;;;16.20;99.90;;;;;;5066553;28;20216;-80
2021/09/02 05:48:28;;;;;;;11.93;9.55;;;16.20;99.90;;;;;;5066165;28;20189;-80
2021/09/02 05:50:54;;;;;;;16.52;10.35;;;16.20;99.90;;;;;;5063377;28;20472;-81
2021/09/02 05:53:22;;;;;;;14.48;9.40;;;16.20;99.90;;;;;;5047745;28;20570;-79
2021/09/02 05:55:50;;;;;;;19.40;9.23;;;16.20;99.90;;;;;;5047463;28;20283;-80
2021/09/02 05:58:17;;;;;;;13.27;8.32;;;16.20;99.90;;;;;;5059829;28;20399;-81
2021/09/02 06:00:45;;;;;;;16.50;8.88;;;16.20;99.90;;;;;;5067472;28;20213;-81
2021/09/02 06:03:11;;;;;;;17.70;7.85;;;16.20;99.90;;;;;;5066934;28;20205;-82
2021/09/02 06:05:38;;;;;;;16.52;8.35;;;16.20;99.90;;;;;;5067346;28;20217;-81
2021/09/02 06:08:05;;;;;;;17.10;9.40;;;16.20;99.90;;;;;;5066068;28;20197;-82
2021/09/02 06:10:33;;;;;;;11.65;7.25;;;16.20;99.90;;;;;;5066741;28;20213;-81
2021/09/02 06:13:01;;;;;;;12.40;7.30;;;16.20;99.90;;;;;;5066516;28;20949;-81
2021/09/02 06:15:28;;;;;;;11.63;6.85;;;16.20;99.90;;;;;;5066494;28;20200;-83
2021/09/02 06:17:56;;;;;;;16.30;7.18;;;16.30;99.90;;;;;;5065337;28;20250;-80
2021/09/02 06:20:24;;;;;;;12.85;6.32;;;16.20;99.90;;;;;;5065893;28;20197;-81
2021/09/02 06:30:10;;;;;;;11.57;5.70;;;16.20;99.90;;;;;;4910537;28;20203;-81
2021/09/02 06:32:37;;;;;;;12.35;6.35;;;16.20;99.90;;;;;;4983671;28;20229;-79
2021/09/02 06:35:07;;;;;;;11.13;5.75;;;16.20;99.90;;;;;;4983930;28;20199;-79
2021/09/02 06:37:34;;;;;;;14.20;7.43;;;16.30;99.90;;;;;;4964229;28;20251;-80
2021/09/02 06:40:01;;;;;;;15.40;6.57;;;16.30;99.90;;;;;;4964740;28;20208;-79
2021/09/02 06:42:28;;;;;;;11.80;6.28;;;16.30;99.90;;;;;;4964100;28;20231;-81
2021/09/02 06:44:54;;;;;;;11.38;5.93;;;16.30;99.90;;;;;;4962614;28;20247;-81
2021/09/02 06:47:21;;;;;;;10.30;5.75;;;16.30;99.90;;;;;;4944408;28;20204;-80
2021/09/02 06:49:48;;;;;;;14.80;6.00;;;16.30;99.90;;;;;;4964852;28;20201;-81
2021/09/02 06:52:16;;;;;;;16.55;6.20;;;16.40;99.90;;;;;;4961004;28;20238;-81
2021/09/02 06:54:43;;;;;;;11.68;5.70;;;16.40;99.90;;;;;;4965447;28;20212;-81
2021/09/02 06:57:10;;;;;;;9.40;5.40;;;16.30;99.90;;;;;;4966111;28;20204;-80
2021/09/02 06:59:36;;;;;;;13.55;6.13;;;16.40;99.90;;;;;;4964165;28;20588;-80
2021/09/02 07:02:03;;;;;;;8.90;4.63;;;16.40;99.90;;;;;;4963036;28;20216;-79
2021/09/02 07:04:30;;;;;;;13.27;5.47;;;16.40;99.90;;;;;;4946899;28;20220;-81
2021/09/02 07:06:57;;;;;;;8.00;4.30;;;16.40;99.90;;;;;;4962724;28;20205;-80
2021/09/02 07:09:25;;;;;;;14.32;5.57;;;16.40;99.90;;;;;;4945562;28;20221;-81
2021/09/02 07:11:52;;;;;;;14.35;4.93;;;16.50;99.90;;;;;;4984024;28;20204;-82
2021/09/02 07:14:19;;;;;;;10.98;5.50;;;16.50;99.90;;;;;;4984810;28;20602;-83
2021/09/02 07:16:46;;;;;;;9.00;5.10;;;16.50;99.90;;;;;;5003335;28;20219;-82
2021/09/02 07:19:13;;;;;;;12.57;6.28;;;16.50;99.90;;;;;;5005960;28;20199;-81
2021/09/02 07:21:39;;;;;;;8.13;4.72;;;16.50;99.90;;;;;;4992109;28;20248;-84
2021/09/02 07:24:06;;;;;;;10.65;4.70;;;16.50;99.90;;;;;;5042664;28;20601;-81
2021/09/02 07:26:36;;;;;;;14.20;5.15;;;16.60;99.90;;;;;;5046986;28;20598;-81
2021/09/02 07:29:03;;;;;;;11.48;5.07;;;16.60;99.90;;;;;;5046932;28;20221;-83
2021/09/02 07:31:29;;;;;;;10.05;5.28;;;16.60;99.90;;;;;;5046796;28;20218;-82
2021/09/02 07:33:56;;;;;;;14.75;5.93;;;16.60;99.90;;;;;;5060548;28;20212;-81
2021/09/02 07:36:23;;;;;;;16.73;5.80;;;16.60;99.90;;;;;;5066996;28;20594;-81
2021/09/02 07:38:50;;;;;;;8.68;5.18;;;16.60;99.90;;;;;;5066009;28;20245;-81
2021/09/02 07:41:17;;;;;;;10.75;4.90;;;16.60;99.90;;;;;;5066175;28;20625;-81
2021/09/02 07:43:45;;;;;;;10.52;5.30;;;16.50;99.90;;;;;;5058536;28;20210;-80
2021/09/02 07:46:12;;;;;;;14.38;5.85;;;16.60;99.90;;;;;;5049702;28;20221;-82
2021/09/02 07:48:41;;;;;;;8.07;4.70;;;16.60;99.90;;;;;;5048192;28;20210;-82
2021/09/02 07:51:08;;;;;;;13.23;5.70;;;16.60;99.90;;;;;;5059744;28;20247;-82
2021/09/02 07:53:35;;;;;;;14.88;6.10;;;16.60;99.90;;;;;;5060037;28;20766;-83
2021/09/02 07:56:01;;;;;;;12.68;5.78;;;16.60;99.90;;;;;;5047687;28;20201;-82
2021/09/02 07:58:28;;;;;;;10.23;5.18;;;16.70;99.90;;;;;;5047946;28;20498;-79
2021/09/02 08:00:56;;;;;;;8.88;5.03;;;16.70;99.90;;;;;;5046834;28;20528;-80
2021/09/02 08:03:23;;;;;;;13.25;5.65;;;16.70;99.90;;;;;;5048196;28;20229;-80
2021/09/02 08:05:50;;;;;;;15.00;5.95;;;16.70;99.90;;;;;;5049213;28;20417;-80
2021/09/02 08:08:17;;;;;;;12.63;6.03;;;16.80;99.90;;;;;;5047497;28;20241;-81
2021/09/02 08:10:45;;;;;;;9.57;5.43;;;16.70;99.90;;;;;;5048890;28;20428;-81
2021/09/02 08:13:12;;;;;;;9.95;5.82;;;16.80;99.90;;;;;;5052980;28;20205;-81
2021/09/02 08:15:40;;;;;;;8.15;5.20;;;16.80;99.90;;;;;;5071095;28;20205;-80
2021/09/02 08:18:09;;;;;;;10.73;5.50;;;16.80;99.90;;;;;;5067901;28;20296;-82
2021/09/02 08:20:37;;;;;;;11.93;5.35;;;16.90;99.90;;;;;;5067773;28;20204;-82
2021/09/02 08:23:04;;;;;;;8.63;5.35;;;16.90;99.90;;;;;;5068283;28;20221;-81
2021/09/02 08:25:31;;;;;;;8.95;5.60;;;16.90;99.90;;;;;;5062527;28;20222;-83
2021/09/02 08:27:58;;;;;;;9.95;5.32;;;16.90;99.90;;;;;;5047631;28;20202;-82
2021/09/02 08:30:27;;;;;;;11.25;5.82;;;17.00;99.90;;;;;;5048907;28;20251;-82
2021/09/02 08:32:54;;;;;;;10.02;5.53;;;17.00;99.90;;;;;;5068518;28;20220;-81
2021/09/02 08:35:24;;;;;;;11.07;5.88;;;17.00;99.90;;;;;;5068053;28;20205;-80
2021/09/02 08:37:55;;;;;;;13.52;6.80;;;17.00;99.90;;;;;;5067388;28;20244;-81
2021/09/02 08:40:24;;;;;;;10.85;5.50;;;17.10;99.90;;;;;;5068604;28;20565;-81
2021/09/02 08:42:54;;;;;;;10.23;5.88;;;17.10;99.90;;;;;;5068027;28;20243;-81
2021/09/02 08:45:21;;;;;;;11.70;5.40;;;17.10;99.90;;;;;;5069382;28;20225;-81
2021/09/02 08:47:49;;;;;;;13.98;5.28;;;17.20;99.90;;;;;;5068723;28;20193;-83
2021/09/02 08:50:17;;;;;;;9.98;5.18;;;17.30;99.90;;;;;;5052849;28;20232;-81
2021/09/02 08:52:45;;;;;;;11.50;6.20;;;17.30;99.90;;;;;;5048417;28;20213;-80
2021/09/02 08:55:12;;;;;;;15.13;6.30;;;17.30;99.90;;;;;;5048504;28;20610;-80
2021/09/02 08:57:39;;;;;;;8.75;5.65;;;17.40;99.90;;;;;;5048377;28;20236;-79
2021/09/02 09:00:08;;;;;;;13.70;5.93;;;17.40;99.90;;;;;;5048135;28;20193;-80
2021/09/02 09:02:43;;;;;;;8.23;5.15;;;17.40;99.90;;;;;;5048376;28;20202;-83
2021/09/02 09:05:12;;;;;;;8.55;5.20;;;17.40;99.90;;;;;;5053618;28;20235;-80
2021/09/02 09:07:41;;;;;;;6.60;4.82;;;17.50;99.90;;;;;;5067430;28;20492;-82
2021/09/02 09:10:12;;;;;;;9.90;5.40;;;17.50;99.90;;;;;;5056019;28;20198;-83
2021/09/02 09:12:42;;;;;;;9.82;6.03;;;17.60;99.90;;;;;;5047604;28;20193;-83
2021/09/02 09:15:15;;;;;;;13.48;5.75;;;17.60;99.90;;;;;;5048330;28;20209;-80
2021/09/02 09:17:42;;;;;;;10.57;5.38;;;17.60;99.90;;;;;;5050154;28;20293;-79
2021/09/02 09:20:11;;;;;;;9.05;5.32;;;17.70;99.90;;;;;;5053375;28;20200;-84
2021/09/02 09:22:38;;;;;;;8.65;5.32;;;17.80;99.90;;;;;;5069440;28;20205;-81
2021/09/02 09:25:08;;;;;;;11.38;5.63;;;17.90;99.90;;;;;;5067508;28;20236;-81
2021/09/02 09:27:50;;;;;;;7.70;5.25;;;17.90;99.90;;;;;;5068381;28;20201;-83
2021/09/02 09:30:19;;;;;;;9.23;5.07;;;17.90;99.90;;;;;;5068973;28;20216;-83
2021/09/02 09:32:48;;;;;;;10.73;5.22;;;17.90;99.90;;;;;;5069051;28;20278;-83
2021/09/02 09:35:19;;;;;;;11.45;5.32;;;18.00;99.90;;;;;;5068872;28;20200;-83
2021/09/02 09:37:47;;;;;;;9.82;5.15;;;18.10;99.90;;;;;;5068997;28;20233;-82
2021/09/02 09:40:17;;;;;;;12.10;6.40;;;18.10;99.90;;;;;;5068177;28;20691;-80
2021/09/02 09:43:07;;;;;;;10.45;5.75;;;18.20;99.90;;;;;;5067487;28;20213;-82
2021/09/02 09:45:44;;;;;;;14.18;6.05;;;18.30;99.90;;;;;;5068013;28;20217;-81
2021/09/02 09:48:36;;;;;;;10.02;4.97;;;18.40;99.90;;;;;;5067548;28;20212;-82
2021/09/02 09:51:24;;;;;;;8.88;5.53;;;18.50;99.90;;;;;;5068202;28;20224;-82
2021/09/02 09:53:52;;;;;;;9.43;5.45;;;18.60;99.90;;;;;;5063108;28;20592;-85
2021/09/02 09:56:21;;;;;;;10.40;5.00;;;18.70;99.90;;;;;;5068809;28;20201;-82
2021/09/02 09:58:52;;;;;;;9.13;5.30;;;18.80;99.90;;;;;;5059076;28;20607;-82
2021/09/02 10:01:19;;;;;;;10.73;5.45;;;18.90;99.90;;;;;;5048221;28;20512;-83
2021/09/02 10:03:50;;;;;;;13.40;5.82;;;18.90;99.90;;;;;;5048610;28;20202;-80
2021/09/02 10:06:19;;;;;;;10.68;5.35;;;18.80;99.90;;;;;;5047392;28;20824;-81
2021/09/02 10:08:46;;;;;;;7.25;5.28;;;18.80;99.90;;;;;;5048082;28;20201;-81
2021/09/02 10:11:17;;;;;;;7.43;5.13;;;18.90;99.90;;;;;;5065682;28;20216;-84
2021/09/02 10:13:44;;;;;;;9.02;5.70;;;19.00;99.90;;;;;;5068764;28;20359;-84
2021/09/02 10:16:13;;;;;;;7.85;5.00;;;19.10;99.90;;;;;;5067606;28;20657;-84
2021/09/02 10:18:43;;;;;;;10.30;4.88;;;19.30;99.90;;;;;;5068212;28;20201;-81
2021/09/02 10:21:11;;;;;;;9.35;4.88;;;19.30;99.90;;;;;;5067895;28;20212;-84
2021/09/02 10:23:37;;;;;;;10.20;5.25;;;19.30;99.90;;;;;;5068940;28;20204;-83
2021/09/02 10:26:05;;;;;;;10.68;6.00;;;19.30;99.90;;;;;;5069081;28;20213;-83
2021/09/02 10:28:34;;;;;;;7.05;5.03;;;19.30;99.90;;;;;;5069106;28;20229;-82
2021/09/02 10:31:03;;;;;;;9.60;5.30;;;19.40;99.90;;;;;;5068476;28;20229;-83
2021/09/02 10:33:40;;;;;;;8.35;4.80;;;19.50;99.90;;;;;;5069179;28;20216;-84
2021/09/02 10:36:40;;;;;;;6.60;4.93;;;19.60;99.90;;;;;;5068242;28;20196;-81
2021/09/02 10:39:07;;;;;;;6.80;5.05;;;19.60;99.90;;;;;;5068316;28;20614;-82
2021/09/02 10:41:48;;;;;;;5.90;4.82;;;19.60;99.90;;;;;;5075816;22;20228;-84
2021/09/02 10:44:16;;;;;;;7.78;4.85;;;19.70;99.90;;;;;;5053420;28;20205;-84
2021/09/02 10:46:45;;;;;;;10.45;5.13;;;19.70;99.90;;;;;;5048896;28;20248;-82
2021/09/02 10:49:16;;;;;;;8.77;4.57;;;19.70;99.90;;;;;;5050507;28;20217;-84
2021/09/02 10:51:45;;;;;;;7.82;4.20;;;19.70;99.90;;;;;;5054451;28;20835;-83
2021/09/02 10:54:13;;;;;;;6.82;5.20;;;19.80;99.90;;;;;;5069332;28;20216;-84
2021/09/02 10:57:05;;;;;;;9.07;4.85;;;19.80;99.90;;;;;;5067886;28;20563;-85
2021/09/02 10:59:49;;;;;;;8.80;5.32;;;19.80;99.90;;;;;;5066988;28;20206;-83
2021/09/02 11:02:41;;;;;;;9.00;4.32;;;19.70;99.90;;;;;;5069283;28;20292;-84
2021/09/02 11:05:11;;;;;;;8.02;4.10;;;19.60;99.90;;;;;;5068538;28;20202;-82
2021/09/02 11:07:43;;;;;;;6.50;4.38;;;19.60;99.90;;;;;;5069061;28;20224;-84
2021/09/02 11:10:13;;;;;;;6.15;4.40;;;19.60;99.90;;;;;;5067567;28;20239;-83
2021/09/02 11:12:40;;;;;;;7.47;4.95;;;19.50;99.90;;;;;;5067141;28;20202;-84
2021/09/02 11:15:08;;;;;;;7.90;4.53;;;19.50;99.90;;;;;;5067792;28;20223;-83
2021/09/02 11:17:35;;;;;;;7.72;4.80;;;19.60;99.90;;;;;;5071037;28;20772;-83
2021/09/02 11:20:03;;;;;;;7.35;4.90;;;19.50;99.90;;;;;;5071351;28;20202;-83
2021/09/02 11:22:31;;;;;;;7.15;4.40;;;19.60;99.90;;;;;;5051424;28;20194;-84
2021/09/02 11:24:58;;;;;;;9.18;4.70;;;19.60;99.90;;;;;;5050772;28;20210;-82
2021/09/02 11:27:31;;;;;;;11.70;5.72;;;19.60;99.90;;;;;;5061990;28;20224;-84
2021/09/02 11:30:15;;;;;;;8.88;4.72;;;19.60;99.90;;;;;;5069113;28;20205;-84
2021/09/02 11:32:42;;;;;;;9.30;5.38;;;19.60;99.90;;;;;;5070353;28;20232;-82
2021/09/02 11:35:10;;;;;;;7.50;5.25;;;19.70;99.90;;;;;;5069894;28;20329;-84
2021/09/02 11:37:40;;;;;;;6.75;4.65;;;19.70;99.90;;;;;;5070484;28;20210;-85
2021/09/02 11:40:09;;;;;;;8.38;4.70;;;19.70;99.90;;;;;;5069499;28;20209;-83
2021/09/02 11:42:36;;;;;;;7.50;4.88;;;19.80;99.90;;;;;;5053252;28;20241;-83
2021/09/02 11:45:04;;;;;;;6.65;4.63;;;19.80;99.90;;;;;;5048632;28;20190;-83
2021/09/02 11:47:35;;;;;;;8.13;4.90;;;19.90;99.90;;;;;;5049167;28;20857;-81
2021/09/02 11:50:03;;;;;;;5.88;4.18;;;20.00;99.90;;;;;;5071624;28;20213;-82
2021/09/02 11:52:43;;;;;;;6.97;4.50;;;20.10;99.90;;;;;;5070132;28;20220;-82
2021/09/02 11:55:27;;;;;;;12.73;5.45;;;20.20;99.90;;;;;;5069685;28;20205;-80
2021/09/02 11:57:55;;;;;;;8.90;5.55;;;20.20;99.90;;;;;;5068859;28;20193;-82
2021/09/02 12:00:22;;;;;;;7.57;4.82;;;20.20;99.90;;;;;;5069007;28;20229;-82
2021/09/02 12:02:50;;;;;;;8.57;4.60;;;20.30;99.90;;;;;;5079063;28;20185;-82
2021/09/02 12:05:20;;;;;;;8.73;4.68;;;20.30;99.90;;;;;;5073362;28;20209;-81
2021/09/02 12:07:50;;;;;;;9.73;5.20;;;20.40;99.90;;;;;;5071390;28;20260;-85
2021/09/02 12:10:19;;;;;;;8.32;4.90;;;20.40;99.90;;;;;;5071598;28;20200;-82
2021/09/02 12:12:46;;;;;;;9.13;5.35;;;20.50;99.90;;;;;;5070527;28;20198;-82
2021/09/02 12:15:23;;;;;;;7.57;5.10;;;20.50;99.90;;;;;;5069429;28;20571;-81
2021/09/02 12:17:50;;;;;;;7.53;5.00;;;20.60;99.90;;;;;;5068377;28;20513;-83
2021/09/02 12:20:25;;;;;;;9.40;5.60;;;20.60;99.90;;;;;;5067714;28;20962;-83
2021/09/02 12:22:53;;;;;;;9.27;5.20;;;20.60;99.90;;;;;;5049849;28;20213;-82
2021/09/02 12:25:22;;;;;;;6.32;4.78;;;20.60;99.90;;;;;;5048649;28;20208;-82
2021/09/02 12:27:50;;;;;;;6.88;4.70;;;20.60;99.90;;;;;;5047706;28;20221;-83
2021/09/02 12:30:18;;;;;;;9.32;5.45;;;20.70;99.90;;;;;;5046085;28;20636;-84
2021/09/02 12:32:45;;;;;;;9.25;5.25;;;20.60;99.90;;;;;;5049342;28;20226;-83
2021/09/02 12:35:15;;;;;;;8.63;5.30;;;20.50;99.90;;;;;;5050954;28;20279;-82
2021/09/02 12:37:42;;;;;;;9.52;5.35;;;20.50;99.90;;;;;;5053599;28;20198;-82
2021/09/02 12:40:19;;;;;;;8.77;5.68;;;20.40;99.90;;;;;;5072255;28;20216;-83
2021/09/02 12:42:47;;;;;;;8.45;4.93;;;20.30;99.90;;;;;;5069637;28;20233;-81
2021/09/02 12:45:18;;;;;;;7.25;5.38;;;20.40;99.90;;;;;;5066455;28;20602;-81
2021/09/02 12:47:47;;;;;;;9.32;5.30;;;20.30;99.90;;;;;;5047637;28;20213;-81
2021/09/02 12:50:16;;;;;;;9.15;5.40;;;20.40;99.90;;;;;;5050666;28;20201;-82
2021/09/02 12:52:43;;;;;;;7.45;4.75;;;20.40;99.90;;;;;;5068202;28;20209;-82
2021/09/02 12:55:16;;;;;;;7.30;5.18;;;20.40;99.90;;;;;;5068661;28;20228;-82